Pierrepont, New York
Current Conditions -  °F | °C
As of 7:53 PM on Saturday 22 Nov 2014 (Local Time) from KMSS Reporting Station
Light Rain Light Rain  
Wind Chill: -2°   Ceiling: 1400
Heat Index:   Visibility: 7mi
Dew Point:   Wind: 15mph
Humidity: 96%   Direction: 210°SSW
Pressure: 29.9"   Gusts: NA
Location:  44.5792°N, 75.1592°W
Report Text: KMSS 230053Z AUTO 21013KT 7SM -RA OVC014 03/02 A2990 RMK AO2 UPB24E25 SLP132 P0001 T00280022
Loading
Personal Weather Stations






























Interactive Weather Map New forecast layout! Learn more

10-Day Weather Forecast

Advertisements
Track Severe Weather on mobile